Historique des mesures à Cassis (13260), France
Quotidien Résumé Mars 12, 2021 Unités:  US    Métrique   Métrique/US
Quotidien Hebdomadaire Mensuel Annuel
  Maximum: Minimum: Moyenne:
Température: 89.8 °F 75.9 °F 82 °F
Point de rosée: 69.6 °F 53.6 °F 62.2 °F
Humidité: 61% 44% 52%
Vitesse du vent: 5.3mph 0mph 2.2mph
Rafales: 14.3mph - -
Vent- - SSW
Pression: 30 in 29.9 in -
Précipitations: 0 in    
Historical Graphs
 
 
Mesures pour : Mars 12, 2021
Heure Temperature Point de rosée Pression Vent Vitesse du vent Rafales Humidité Pluie (par heure)
00:11 78.1 °F 54.3 °F 29.9 in WNW 2 mph 2.5 mph 44% 0 in
01:11 77.2 °F 54.1 °F 30 in WNW 4 mph 4 mph 45% 0 in
02:11 76.3 °F 55.2 °F 29.9 in NW 2.5 mph 4.7 mph 48% 0 in
03:11 75.9 °F 55.4 °F 29.9 in NNW 5.3 mph 9.6 mph 49% 0 in
04:11 77.2 °F 55.4 °F 29.9 in Calm   3.8 mph 47% 0 in
05:11 76.6 °F 55.4 °F 29.9 in NW 4.7 mph 14.3 mph 48% 0 in
06:11 77.2 °F 53.6 °F 29.9 in WNW 5.2 mph 7.4 mph 44% 0 in
07:11 77.9 °F 54.9 °F 29.9 in WNW 1.4 mph 1.8 mph 45% 0 in
08:11 78.4 °F 56.5 °F 29.9 in Calm   6.3 mph 47% 0 in
09:11 80.4 °F 63.7 °F 30 in Calm   3.1 mph 57% 0 in
10:11 81.3 °F 65.1 °F 30 in Calm   2.9 mph 58% 0 in
11:11 82.8 °F 65.8 °F 30 in NNE 1.8 mph 2.5 mph 57% 0 in
12:11 87.4 °F 67.1 °F 30 in South 2.2 mph 6 mph 51% 0 in
13:11 89.2 °F 68.2 °F 30 in SE 2.5 mph 5.6 mph 50% 0 in
14:11 88.9 °F 67.8 °F 30 in SE 1.4 mph 2.5 mph 50% 0 in
15:11 88.5 °F 68.7 °F 30 in SE 4 mph 4.9 mph 52% 0 in
16:11 89.8 °F 68 °F 30 in ESE 1.8 mph 5.2 mph 49% 0 in
17:11 89.4 °F 68.9 °F 30 in ESE 2.2 mph 5.3 mph 51% 0 in
18:11 88.3 °F 69.6 °F 30 in SSE 3.1 mph 5.2 mph 54% 0 in
19:11 86.2 °F 69.1 °F 30 in South 5.2 mph 5.2 mph 57% 0 in
20:11 83.3 °F 66.4 °F 30 in Calm   0.9 mph 57% 0 in
21:11 81 °F 66.2 °F 30 in SW 2.2 mph 2.2 mph 61% 0 in
22:11 79 °F 64.4 °F 30 in WSW 2.5 mph 2.9 mph 61% 0 in
23:11 78.1 °F 61.2 °F 30 in Calm   1.4 mph 56% 0 in
Observations météo à CASSIS
WU-History script by Weather Underground - 2 mb